sensor_id;sensor_type;location;lat;lon;timestamp;pressure;altitude;pressure_sealevel;temperature;humidity
75972;BME280;64651;47.540;19.088;2023-08-07T00:00:05;99576.25;;;17.07;65.49
75972;BME280;64651;47.540;19.088;2023-08-07T00:05:11;99593.38;;;17.09;65.42
75972;BME280;64651;47.540;19.088;2023-08-07T00:10:13;99594.38;;;17.25;65.21
75972;BME280;64651;47.540;19.088;2023-08-07T00:15:16;99594.91;;;17.07;66.02
75972;BME280;64651;47.540;19.088;2023-08-07T00:20:18;99595.03;;;17.10;66.09
75972;BME280;64651;47.540;19.088;2023-08-07T00:25:20;99595.16;;;17.14;66.32
75972;BME280;64651;47.540;19.088;2023-08-07T00:30:23;99590.50;;;17.06;66.81
75972;BME280;64651;47.540;19.088;2023-08-07T00:35:25;99592.75;;;17.24;66.37
75972;BME280;64651;47.540;19.088;2023-08-07T00:40:27;99607.06;;;17.14;66.68
75972;BME280;64651;47.540;19.088;2023-08-07T00:45:31;99604.09;;;17.19;66.55
75972;BME280;64651;47.540;19.088;2023-08-07T00:50:36;99608.25;;;17.13;67.12
75972;BME280;64651;47.540;19.088;2023-08-07T00:55:46;99609.34;;;17.00;67.22
75972;BME280;64651;47.540;19.088;2023-08-07T01:00:49;99607.69;;;16.87;68.04
75972;BME280;64651;47.540;19.088;2023-08-07T01:05:51;99599.78;;;16.77;68.22
75972;BME280;64651;47.540;19.088;2023-08-07T01:21:46;99598.63;;;16.48;68.76
75972;BME280;64651;47.540;19.088;2023-08-07T01:26:50;99595.47;;;16.58;68.47
75972;BME280;64651;47.540;19.088;2023-08-07T01:31:55;99607.06;;;16.60;68.49
75972;BME280;64651;47.540;19.088;2023-08-07T01:37:00;99613.44;;;16.82;67.06
75972;BME280;64651;47.540;19.088;2023-08-07T01:42:04;99629.69;;;16.92;66.61
75972;BME280;64651;47.540;19.088;2023-08-07T01:47:06;99620.37;;;17.09;65.85
75972;BME280;64651;47.540;19.088;2023-08-07T01:52:09;99620.22;;;17.26;64.79
75972;BME280;64651;47.540;19.088;2023-08-07T01:57:11;99620.97;;;17.14;64.56
75972;BME280;64651;47.540;19.088;2023-08-07T02:02:13;99633.16;;;17.22;64.22
75972;BME280;64651;47.540;19.088;2023-08-07T02:07:16;99618.59;;;17.25;63.87
75972;BME280;64651;47.540;19.088;2023-08-07T02:12:18;99611.41;;;17.24;63.31
75972;BME280;64651;47.540;19.088;2023-08-07T02:17:21;99627.75;;;17.25;63.26
75972;BME280;64651;47.540;19.088;2023-08-07T02:22:24;99619.78;;;17.03;63.42
75972;BME280;64651;47.540;19.088;2023-08-07T02:27:27;99624.62;;;16.94;63.93
75972;BME280;64651;47.540;19.088;2023-08-07T02:32:29;99629.50;;;16.76;64.28
75972;BME280;64651;47.540;19.088;2023-08-07T02:37:32;99630.50;;;16.72;64.75
75972;BME280;64651;47.540;19.088;2023-08-07T02:42:34;99619.00;;;16.61;65.01
75972;BME280;64651;47.540;19.088;2023-08-07T02:47:36;99629.34;;;16.52;65.47
75972;BME280;64651;47.540;19.088;2023-08-07T02:52:38;99636.16;;;16.54;65.13
75972;BME280;64651;47.540;19.088;2023-08-07T02:57:40;99633.59;;;16.49;65.40
75972;BME280;64651;47.540;19.088;2023-08-07T03:02:42;99641.28;;;16.52;65.21
75972;BME280;64651;47.540;19.088;2023-08-07T03:07:45;99627.47;;;16.35;64.97
75972;BME280;64651;47.540;19.088;2023-08-07T03:12:47;99655.00;;;16.49;65.06
75972;BME280;64651;47.540;19.088;2023-08-07T03:17:49;99641.19;;;16.40;65.25
75972;BME280;64651;47.540;19.088;2023-08-07T03:22:51;99641.56;;;16.30;65.46
75972;BME280;64651;47.540;19.088;2023-08-07T03:27:53;99632.78;;;16.28;65.22
75972;BME280;64651;47.540;19.088;2023-08-07T03:32:56;99639.12;;;16.29;64.86
75972;BME280;64651;47.540;19.088;2023-08-07T03:37:58;99648.84;;;16.43;64.05
75972;BME280;64651;47.540;19.088;2023-08-07T03:43:00;99651.81;;;16.38;64.34
75972;BME280;64651;47.540;19.088;2023-08-07T03:48:03;99655.78;;;16.29;64.57
75972;BME280;64651;47.540;19.088;2023-08-07T03:53:05;99664.09;;;16.29;64.62
75972;BME280;64651;47.540;19.088;2023-08-07T03:58:09;99664.91;;;16.29;64.51
75972;BME280;64651;47.540;19.088;2023-08-07T04:03:11;99668.09;;;16.19;64.74
75972;BME280;64651;47.540;19.088;2023-08-07T04:08:13;99669.62;;;16.08;65.22
75972;BME280;64651;47.540;19.088;2023-08-07T04:13:15;99666.94;;;16.20;64.77
75972;BME280;64651;47.540;19.088;2023-08-07T04:18:18;99687.31;;;16.24;64.34
75972;BME280;64651;47.540;19.088;2023-08-07T04:23:20;99674.59;;;16.23;64.32
75972;BME280;64651;47.540;19.088;2023-08-07T04:28:23;99667.78;;;16.12;64.53
75972;BME280;64651;47.540;19.088;2023-08-07T04:33:25;99677.19;;;16.28;64.00
75972;BME280;64651;47.540;19.088;2023-08-07T04:38:27;99679.00;;;16.24;63.89
75972;BME280;64651;47.540;19.088;2023-08-07T04:43:31;99686.28;;;16.37;63.76
75972;BME280;64651;47.540;19.088;2023-08-07T04:48:34;99682.75;;;16.28;63.76
75972;BME280;64651;47.540;19.088;2023-08-07T04:53:36;99694.56;;;16.46;63.47
75972;BME280;64651;47.540;19.088;2023-08-07T04:58:38;99671.25;;;16.59;62.46
75972;BME280;64651;47.540;19.088;2023-08-07T05:03:40;99677.00;;;16.62;62.12
75972;BME280;64651;47.540;19.088;2023-08-07T05:08:43;99675.72;;;16.81;61.58
75972;BME280;64651;47.540;19.088;2023-08-07T05:13:45;99676.13;;;16.91;61.41
75972;BME280;64651;47.540;19.088;2023-08-07T05:18:47;99682.97;;;16.94;60.92
75972;BME280;64651;47.540;19.088;2023-08-07T05:23:51;99677.81;;;16.84;60.49
75972;BME280;64651;47.540;19.088;2023-08-07T05:28:57;99671.38;;;17.13;59.71
75972;BME280;64651;47.540;19.088;2023-08-07T05:34:02;99675.25;;;17.32;59.04
75972;BME280;64651;47.540;19.088;2023-08-07T05:39:04;99678.69;;;17.17;58.74
75972;BME280;64651;47.540;19.088;2023-08-07T05:44:06;99682.53;;;17.25;58.61
75972;BME280;64651;47.540;19.088;2023-08-07T05:49:08;99697.53;;;17.44;57.95
75972;BME280;64651;47.540;19.088;2023-08-07T05:54:10;99716.12;;;17.53;57.75
75972;BME280;64651;47.540;19.088;2023-08-07T05:59:13;99721.94;;;17.80;57.33
75972;BME280;64651;47.540;19.088;2023-08-07T06:04:15;99716.28;;;18.01;56.13
75972;BME280;64651;47.540;19.088;2023-08-07T06:09:17;99728.00;;;18.19;55.29
75972;BME280;64651;47.540;19.088;2023-08-07T06:14:26;99758.47;;;18.60;54.17
75972;BME280;64651;47.540;19.088;2023-08-07T06:19:28;99771.06;;;18.21;54.26
75972;BME280;64651;47.540;19.088;2023-08-07T06:24:33;99770.31;;;18.70;52.80
75972;BME280;64651;47.540;19.088;2023-08-07T06:29:36;99767.69;;;19.13;52.02
75972;BME280;64651;47.540;19.088;2023-08-07T06:34:38;99785.53;;;18.84;52.10
75972;BME280;64651;47.540;19.088;2023-08-07T06:39:40;99786.66;;;18.95;51.86
75972;BME280;64651;47.540;19.088;2023-08-07T06:44:44;99786.19;;;19.05;51.62
75972;BME280;64651;47.540;19.088;2023-08-07T06:49:46;99814.09;;;18.93;51.89
75972;BME280;64651;47.540;19.088;2023-08-07T06:54:48;99803.03;;;18.73;52.07
75972;BME280;64651;47.540;19.088;2023-08-07T06:59:50;99818.03;;;18.68;52.29
75972;BME280;64651;47.540;19.088;2023-08-07T07:04:53;99809.09;;;18.87;51.88
75972;BME280;64651;47.540;19.088;2023-08-07T07:09:55;99815.75;;;19.34;50.91
75972;BME280;64651;47.540;19.088;2023-08-07T07:15:00;99810.37;;;19.54;50.21
75972;BME280;64651;47.540;19.088;2023-08-07T07:20:02;99806.19;;;19.60;49.58
75972;BME280;64651;47.540;19.088;2023-08-07T07:25:05;99808.13;;;19.71;49.15
75972;BME280;64651;47.540;19.088;2023-08-07T07:30:08;99812.41;;;20.24;48.54
75972;BME280;64651;47.540;19.088;2023-08-07T07:35:11;99813.25;;;19.69;48.59
75972;BME280;64651;47.540;19.088;2023-08-07T07:40:13;99803.56;;;19.79;48.28
75972;BME280;64651;47.540;19.088;2023-08-07T07:45:16;99816.78;;;20.10;47.97
75972;BME280;64651;47.540;19.088;2023-08-07T07:50:18;99838.12;;;20.93;46.77
75972;BME280;64651;47.540;19.088;2023-08-07T07:55:20;99840.44;;;19.72;47.64
75972;BME280;64651;47.540;19.088;2023-08-07T08:00:23;99854.88;;;19.74;48.26
75972;BME280;64651;47.540;19.088;2023-08-07T08:05:32;99849.41;;;20.06;48.23
75972;BME280;64651;47.540;19.088;2023-08-07T08:10:34;99855.78;;;20.34;47.49
75972;BME280;64651;47.540;19.088;2023-08-07T08:15:36;99866.59;;;20.08;47.39
75972;BME280;64651;47.540;19.088;2023-08-07T08:20:38;99864.44;;;20.45;46.52
75972;BME280;64651;47.540;19.088;2023-08-07T08:25:41;99873.66;;;20.92;45.55
75972;BME280;64651;47.540;19.088;2023-08-07T08:30:43;99884.16;;;20.80;45.80
75972;BME280;64651;47.540;19.088;2023-08-07T08:35:45;99880.72;;;21.02;45.08
75972;BME280;64651;47.540;19.088;2023-08-07T08:40:51;99892.63;;;21.30;45.07
75972;BME280;64651;47.540;19.088;2023-08-07T08:45:54;99906.59;;;21.81;44.35
75972;BME280;64651;47.540;19.088;2023-08-07T08:50:57;99904.94;;;21.80;43.70
75972;BME280;64651;47.540;19.088;2023-08-07T08:56:00;99902.50;;;21.78;43.49
75972;BME280;64651;47.540;19.088;2023-08-07T09:01:04;99907.53;;;21.69;44.00
75972;BME280;64651;47.540;19.088;2023-08-07T09:06:07;99915.47;;;21.32;44.91
75972;BME280;64651;47.540;19.088;2023-08-07T09:11:10;99915.16;;;20.75;45.55
75972;BME280;64651;47.540;19.088;2023-08-07T09:16:14;99929.88;;;20.87;46.00
75972;BME280;64651;47.540;19.088;2023-08-07T09:21:18;99926.44;;;21.57;45.08
75972;BME280;64651;47.540;19.088;2023-08-07T09:26:24;99909.84;;;21.83;43.85
75972;BME280;64651;47.540;19.088;2023-08-07T09:31:27;99936.38;;;21.54;43.78
75972;BME280;64651;47.540;19.088;2023-08-07T09:36:30;99926.88;;;21.59;43.50
75972;BME280;64651;47.540;19.088;2023-08-07T09:41:33;99936.19;;;22.97;40.85
75972;BME280;64651;47.540;19.088;2023-08-07T09:46:43;99929.16;;;24.83;38.71
75972;BME280;64651;47.540;19.088;2023-08-07T09:51:47;99961.53;;;22.82;40.81
75972;BME280;64651;47.540;19.088;2023-08-07T09:56:56;99958.13;;;21.96;43.69
75972;BME280;64651;47.540;19.088;2023-08-07T10:02:01;99954.78;;;20.77;44.68
75972;BME280;64651;47.540;19.088;2023-08-07T10:07:06;99968.63;;;21.32;44.05
75972;BME280;64651;47.540;19.088;2023-08-07T10:12:09;99965.34;;;20.83;46.09
75972;BME280;64651;47.540;19.088;2023-08-07T10:17:15;99973.41;;;21.48;44.56
75972;BME280;64651;47.540;19.088;2023-08-07T10:22:23;99955.37;;;24.20;38.66
75972;BME280;64651;47.540;19.088;2023-08-07T10:27:27;99966.53;;;24.80;37.20
75972;BME280;64651;47.540;19.088;2023-08-07T10:32:31;99969.59;;;24.34;38.29
75972;BME280;64651;47.540;19.088;2023-08-07T10:37:39;99973.16;;;22.42;41.22
75972;BME280;64651;47.540;19.088;2023-08-07T10:48:13;99980.59;;;20.86;45.18
75972;BME280;64651;47.540;19.088;2023-08-07T10:53:21;99974.31;;;21.52;44.90
75972;BME280;64651;47.540;19.088;2023-08-07T10:58:38;99980.75;;;22.80;42.22
75972;BME280;64651;47.540;19.088;2023-08-07T11:03:42;99981.94;;;22.79;42.04
75972;BME280;64651;47.540;19.088;2023-08-07T11:08:44;99996.50;;;20.97;46.56
75972;BME280;64651;47.540;19.088;2023-08-07T11:13:47;100000.13;;;21.29;46.79
75972;BME280;64651;47.540;19.088;2023-08-07T11:18:49;99983.38;;;22.15;43.83
75972;BME280;64651;47.540;19.088;2023-08-07T11:23:52;99989.50;;;22.20;43.74
75972;BME280;64651;47.540;19.088;2023-08-07T11:28:55;100011.53;;;22.76;42.46
75972;BME280;64651;47.540;19.088;2023-08-07T11:33:58;100000.50;;;21.43;45.01
75972;BME280;64651;47.540;19.088;2023-08-07T11:39:00;99998.63;;;21.16;44.96
75972;BME280;64651;47.540;19.088;2023-08-07T11:44:03;99998.66;;;22.75;42.75
75972;BME280;64651;47.540;19.088;2023-08-07T11:49:05;99996.31;;;21.53;44.85
75972;BME280;64651;47.540;19.088;2023-08-07T11:54:13;99998.94;;;20.43;47.76
75972;BME280;64651;47.540;19.088;2023-08-07T11:59:17;100002.28;;;23.63;42.42
75972;BME280;64651;47.540;19.088;2023-08-07T12:04:20;100010.37;;;25.62;37.92
75972;BME280;64651;47.540;19.088;2023-08-07T12:09:23;100022.94;;;22.29;44.76
75972;BME280;64651;47.540;19.088;2023-08-07T12:14:31;100019.28;;;22.44;43.28
75972;BME280;64651;47.540;19.088;2023-08-07T12:19:40;99997.72;;;26.58;36.14
75972;BME280;64651;47.540;19.088;2023-08-07T12:24:45;99991.66;;;25.87;36.91
75972;BME280;64651;47.540;19.088;2023-08-07T12:29:47;99995.84;;;28.00;32.62
75972;BME280;64651;47.540;19.088;2023-08-07T12:34:49;100003.53;;;24.82;37.82
75972;BME280;64651;47.540;19.088;2023-08-07T12:39:55;100006.34;;;27.00;34.73
75972;BME280;64651;47.540;19.088;2023-08-07T12:45:00;100016.75;;;25.11;37.62
75972;BME280;64651;47.540;19.088;2023-08-07T12:50:02;100025.62;;;22.99;41.13
75972;BME280;64651;47.540;19.088;2023-08-07T12:55:05;100020.25;;;24.08;39.03
75972;BME280;64651;47.540;19.088;2023-08-07T13:00:09;100019.69;;;22.27;43.53
75972;BME280;64651;47.540;19.088;2023-08-07T13:05:14;100043.78;;;21.02;47.19
75972;BME280;64651;47.540;19.088;2023-08-07T13:10:18;100040.03;;;20.83;46.99
75972;BME280;64651;47.540;19.088;2023-08-07T13:15:21;100043.16;;;21.09;46.20
75972;BME280;64651;47.540;19.088;2023-08-07T13:20:23;100037.78;;;21.48;45.28
75972;BME280;64651;47.540;19.088;2023-08-07T13:25:28;100052.12;;;21.77;44.33
75972;BME280;64651;47.540;19.088;2023-08-07T13:30:30;100050.25;;;21.81;44.44
75972;BME280;64651;47.540;19.088;2023-08-07T13:35:38;100063.69;;;22.42;43.21
75972;BME280;64651;47.540;19.088;2023-08-07T13:40:40;100070.38;;;20.69;46.90
75972;BME280;64651;47.540;19.088;2023-08-07T13:45:42;100052.50;;;20.85;46.94
75972;BME280;64651;47.540;19.088;2023-08-07T13:50:44;100079.84;;;19.88;49.28
75972;BME280;64651;47.540;19.088;2023-08-07T13:55:47;100093.00;;;19.30;51.05
75972;BME280;64651;47.540;19.088;2023-08-07T14:00:49;100091.47;;;19.20;51.74
75972;BME280;64651;47.540;19.088;2023-08-07T14:05:52;100103.47;;;20.67;48.62
75972;BME280;64651;47.540;19.088;2023-08-07T14:10:54;100103.78;;;20.37;49.43
75972;BME280;64651;47.540;19.088;2023-08-07T14:15:56;100110.03;;;19.16;52.42
75972;BME280;64651;47.540;19.088;2023-08-07T14:20:58;100111.81;;;18.88;53.54
75972;BME280;64651;47.540;19.088;2023-08-07T14:26:05;100136.66;;;18.51;54.46
75972;BME280;64651;47.540;19.088;2023-08-07T14:31:08;100129.72;;;18.07;55.98
75972;BME280;64651;47.540;19.088;2023-08-07T14:36:11;100127.34;;;17.97;56.96
75972;BME280;64651;47.540;19.088;2023-08-07T14:41:13;100121.87;;;17.80;57.72
75972;BME280;64651;47.540;19.088;2023-08-07T14:46:16;100131.75;;;17.52;58.75
75972;BME280;64651;47.540;19.088;2023-08-07T14:51:20;100125.31;;;18.06;57.61
75972;BME280;64651;47.540;19.088;2023-08-07T14:56:22;100138.06;;;17.78;58.66
75972;BME280;64651;47.540;19.088;2023-08-07T15:01:24;100141.59;;;17.40;60.52
75972;BME280;64651;47.540;19.088;2023-08-07T15:06:27;100147.09;;;17.58;60.23
75972;BME280;64651;47.540;19.088;2023-08-07T15:11:31;100141.41;;;17.54;60.00
75972;BME280;64651;47.540;19.088;2023-08-07T15:16:34;100150.25;;;17.56;60.11
75972;BME280;64651;47.540;19.088;2023-08-07T15:21:37;100141.78;;;17.44;60.85
75972;BME280;64651;47.540;19.088;2023-08-07T15:26:39;100136.34;;;17.48;61.02
75972;BME280;64651;47.540;19.088;2023-08-07T15:31:42;100133.38;;;17.53;61.17
75972;BME280;64651;47.540;19.088;2023-08-07T15:36:44;100133.22;;;17.66;60.84
75972;BME280;64651;47.540;19.088;2023-08-07T15:41:46;100139.66;;;17.32;62.29
75972;BME280;64651;47.540;19.088;2023-08-07T15:46:48;100139.00;;;17.35;62.41
75972;BME280;64651;47.540;19.088;2023-08-07T15:51:51;100138.81;;;17.40;62.47
75972;BME280;64651;47.540;19.088;2023-08-07T15:56:53;100134.50;;;17.69;61.87
75972;BME280;64651;47.540;19.088;2023-08-07T16:01:55;100142.84;;;17.69;61.77
75972;BME280;64651;47.540;19.088;2023-08-07T16:06:57;100130.75;;;17.65;61.98
75972;BME280;64651;47.540;19.088;2023-08-07T16:12:00;100133.62;;;18.15;61.08
75972;BME280;64651;47.540;19.088;2023-08-07T16:17:02;100136.75;;;18.13;61.02
75972;BME280;64651;47.540;19.088;2023-08-07T16:22:05;100130.00;;;19.06;58.30
75972;BME280;64651;47.540;19.088;2023-08-07T16:27:07;100133.19;;;19.50;56.90
75972;BME280;64651;47.540;19.088;2023-08-07T16:32:09;100121.72;;;19.63;56.43
75972;BME280;64651;47.540;19.088;2023-08-07T16:37:11;100126.88;;;19.08;58.18
75972;BME280;64651;47.540;19.088;2023-08-07T16:42:14;100134.88;;;18.76;59.51
75972;BME280;64651;47.540;19.088;2023-08-07T16:47:16;100146.59;;;18.61;59.99
75972;BME280;64651;47.540;19.088;2023-08-07T16:52:19;100133.09;;;19.25;58.13
75972;BME280;64651;47.540;19.088;2023-08-07T16:57:24;100143.00;;;18.60;59.79
75972;BME280;64651;47.540;19.088;2023-08-07T17:02:26;100139.00;;;18.70;59.88
75972;BME280;64651;47.540;19.088;2023-08-07T17:07:28;100148.47;;;18.28;61.08
75972;BME280;64651;47.540;19.088;2023-08-07T17:12:31;100144.69;;;18.53;60.83
75972;BME280;64651;47.540;19.088;2023-08-07T17:17:33;100148.31;;;18.74;60.41
75972;BME280;64651;47.540;19.088;2023-08-07T17:22:35;100145.59;;;19.07;59.72
75972;BME280;64651;47.540;19.088;2023-08-07T17:27:37;100136.56;;;18.69;60.22
75972;BME280;64651;47.540;19.088;2023-08-07T17:32:40;100147.41;;;18.41;61.04
75972;BME280;64651;47.540;19.088;2023-08-07T17:37:42;100152.78;;;18.46;61.19
75972;BME280;64651;47.540;19.088;2023-08-07T17:42:44;100156.53;;;18.20;62.21
75972;BME280;64651;47.540;19.088;2023-08-07T17:47:46;100168.75;;;17.61;64.24
75972;BME280;64651;47.540;19.088;2023-08-07T17:52:50;100157.91;;;17.59;64.34
75972;BME280;64651;47.540;19.088;2023-08-07T17:57:52;100162.53;;;17.47;64.94
75972;BME280;64651;47.540;19.088;2023-08-07T18:02:55;100161.12;;;17.23;66.13
75972;BME280;64651;47.540;19.088;2023-08-07T18:07:57;100183.28;;;17.58;66.07
75972;BME280;64651;47.540;19.088;2023-08-07T18:12:59;100190.94;;;17.78;65.21
75972;BME280;64651;47.540;19.088;2023-08-07T18:18:02;100184.81;;;17.38;66.52
75972;BME280;64651;47.540;19.088;2023-08-07T18:23:04;100197.91;;;17.37;66.75
75972;BME280;64651;47.540;19.088;2023-08-07T18:28:06;100211.00;;;17.28;66.95
75972;BME280;64651;47.540;19.088;2023-08-07T18:33:09;100210.16;;;17.28;66.93
75972;BME280;64651;47.540;19.088;2023-08-07T18:38:11;100207.72;;;17.43;66.81
75972;BME280;64651;47.540;19.088;2023-08-07T18:43:13;100220.97;;;17.38;66.61
75972;BME280;64651;47.540;19.088;2023-08-07T18:48:16;100223.75;;;17.29;66.98
75972;BME280;64651;47.540;19.088;2023-08-07T18:53:18;100236.84;;;17.37;66.42
75972;BME280;64651;47.540;19.088;2023-08-07T18:58:20;100254.50;;;17.24;66.62
75972;BME280;64651;47.540;19.088;2023-08-07T19:03:24;100256.16;;;17.25;66.77
75972;BME280;64651;47.540;19.088;2023-08-07T19:08:27;100252.41;;;17.13;66.79
75972;BME280;64651;47.540;19.088;2023-08-07T19:13:38;100263.66;;;16.99;66.78
75972;BME280;64651;47.540;19.088;2023-08-07T19:18:45;100276.72;;;16.90;67.38
75972;BME280;64651;47.540;19.088;2023-08-07T19:24:05;100274.44;;;16.92;67.14
75972;BME280;64651;47.540;19.088;2023-08-07T19:29:11;100281.97;;;16.83;66.95
75972;BME280;64651;47.540;19.088;2023-08-07T19:34:14;100279.00;;;16.79;67.27
75972;BME280;64651;47.540;19.088;2023-08-07T19:39:18;100284.53;;;16.71;67.13
75972;BME280;64651;47.540;19.088;2023-08-07T19:44:24;100283.88;;;16.74;66.66
75972;BME280;64651;47.540;19.088;2023-08-07T19:50:09;100278.19;;;16.96;65.76
75972;BME280;64651;47.540;19.088;2023-08-07T19:55:12;100266.44;;;16.99;65.33
75972;BME280;64651;47.540;19.088;2023-08-07T20:00:22;100284.75;;;17.00;65.37
75972;BME280;64651;47.540;19.088;2023-08-07T20:05:30;100291.94;;;16.92;65.52
75972;BME280;64651;47.540;19.088;2023-08-07T20:10:51;100289.44;;;16.74;66.19
75972;BME280;64651;47.540;19.088;2023-08-07T20:16:09;100292.53;;;16.72;65.76
75972;BME280;64651;47.540;19.088;2023-08-07T20:21:16;100273.41;;;16.62;65.84
75972;BME280;64651;47.540;19.088;2023-08-07T20:26:32;100288.03;;;16.45;66.36
75972;BME280;64651;47.540;19.088;2023-08-07T20:31:51;100290.75;;;16.37;66.66
75972;BME280;64651;47.540;19.088;2023-08-07T20:36:59;100301.37;;;16.35;66.75
75972;BME280;64651;47.540;19.088;2023-08-07T20:42:08;100293.06;;;16.43;66.43
75972;BME280;64651;47.540;19.088;2023-08-07T20:47:11;100311.91;;;16.55;66.10
75972;BME280;64651;47.540;19.088;2023-08-07T20:52:13;100320.53;;;16.45;66.40
75972;BME280;64651;47.540;19.088;2023-08-07T20:57:21;100309.56;;;16.40;66.63
75972;BME280;64651;47.540;19.088;2023-08-07T21:02:30;100321.00;;;16.38;66.66
75972;BME280;64651;47.540;19.088;2023-08-07T21:07:36;100306.22;;;16.20;67.43
75972;BME280;64651;47.540;19.088;2023-08-07T21:12:50;100319.56;;;16.10;68.03
75972;BME280;64651;47.540;19.088;2023-08-07T21:17:53;100323.59;;;16.04;68.04
75972;BME280;64651;47.540;19.088;2023-08-07T21:22:58;100326.16;;;15.92;68.68
75972;BME280;64651;47.540;19.088;2023-08-07T21:28:01;100320.53;;;15.83;68.97
75972;BME280;64651;47.540;19.088;2023-08-07T21:33:04;100332.59;;;15.78;69.09
75972;BME280;64651;47.540;19.088;2023-08-07T21:38:07;100317.56;;;15.57;70.00
75972;BME280;64651;47.540;19.088;2023-08-07T21:43:10;100324.69;;;15.72;69.35
75972;BME280;64651;47.540;19.088;2023-08-07T21:48:12;100323.50;;;15.64;69.65
75972;BME280;64651;47.540;19.088;2023-08-07T21:53:14;100317.25;;;15.59;69.41
75972;BME280;64651;47.540;19.088;2023-08-07T21:58:17;100336.56;;;15.50;70.57
75972;BME280;64651;47.540;19.088;2023-08-07T22:03:19;100339.72;;;15.35;71.02
75972;BME280;64651;47.540;19.088;2023-08-07T22:08:21;100347.62;;;15.28;71.52
75972;BME280;64651;47.540;19.088;2023-08-07T22:13:24;100347.00;;;15.31;71.34
75972;BME280;64651;47.540;19.088;2023-08-07T22:18:29;100352.09;;;15.37;70.72
75972;BME280;64651;47.540;19.088;2023-08-07T22:23:31;100337.25;;;15.33;70.85
75972;BME280;64651;47.540;19.088;2023-08-07T22:28:36;100351.41;;;15.32;70.81
75972;BME280;64651;47.540;19.088;2023-08-07T22:33:38;100347.38;;;15.38;70.58
75972;BME280;64651;47.540;19.088;2023-08-07T22:38:41;100347.34;;;15.52;70.01
75972;BME280;64651;47.540;19.088;2023-08-07T22:43:43;100351.91;;;15.34;71.05
75972;BME280;64651;47.540;19.088;2023-08-07T22:48:46;100348.72;;;15.40;70.35
75972;BME280;64651;47.540;19.088;2023-08-07T22:53:48;100362.87;;;15.39;70.64
75972;BME280;64651;47.540;19.088;2023-08-07T22:58:51;100359.50;;;15.42;70.48
75972;BME280;64651;47.540;19.088;2023-08-07T23:03:55;100355.56;;;15.43;70.42
75972;BME280;64651;47.540;19.088;2023-08-07T23:08:57;100353.56;;;15.35;70.86
75972;BME280;64651;47.540;19.088;2023-08-07T23:14:02;100373.84;;;15.44;70.42
75972;BME280;64651;47.540;19.088;2023-08-07T23:19:05;100366.47;;;15.39;70.50
75972;BME280;64651;47.540;19.088;2023-08-07T23:24:07;100377.28;;;15.41;70.59
75972;BME280;64651;47.540;19.088;2023-08-07T23:29:10;100386.31;;;15.33;70.86
75972;BME280;64651;47.540;19.088;2023-08-07T23:34:12;100382.75;;;15.19;71.55
75972;BME280;64651;47.540;19.088;2023-08-07T23:39:14;100391.69;;;15.16;71.59
75972;BME280;64651;47.540;19.088;2023-08-07T23:44:18;100389.53;;;15.13;71.93
75972;BME280;64651;47.540;19.088;2023-08-07T23:49:21;100388.72;;;15.12;71.99
75972;BME280;64651;47.540;19.088;2023-08-07T23:54:24;100398.88;;;15.17;71.80
75972;BME280;64651;47.540;19.088;2023-08-07T23:59:26;100391.81;;;15.11;71.91
